Sea Proteus — V7AU3 — position and weather

sailwx.info

Track history (hours):
 
Tides and Currents Weather Stations Pressure Air Temp Water Temp Dewpoint Dewpoint Depression Visibility Wind Speed Wind Dir Waves Ship Positions

Sea Proteus

Last reported at 2017-Dec-17 23:54 UTC. Time now 2017-Dec-18 14:54 UTC.
Position N 49°38' W 007°05'.

Length 229 m; draft 13.3 m.

Type: Cargo ship. MMSI: 538005068.

Date/timePositionNaut miles runAvg speedWind from/ knotsBaromVisibWave heightAir tempDewpointWater temp
2017-Dec-17 23:54N 49°38' W 007°05'4111.1
2017-Dec-17 20:14N 50°16' W 006°45'911.3
2017-Dec-17 19:26N 50°25' W 006°40'711.0
2017-Dec-17 18:47N 50°32' W 006°36'310.8
2017-Dec-17 18:29N 50°35' W 006°35'20910.3
2017-Dec-16 22:15N 53°58' W 005°16'310.4
2017-Dec-16 21:59N 54°01' W 005°16'510.7
2017-Dec-16 21:30N 54°06' W 005°17'510.9
2017-Dec-16 21:00N 54°11' W 005°17'611.2
2017-Dec-16 20:30N 54°17' W 005°18'611.7
2017-Dec-16 20:00N 54°23' W 005°18'612.2
2017-Dec-16 19:30N 54°29' W 005°18'612.5
2017-Dec-16 19:00N 54°35' W 005°20'613.0
2017-Dec-16 18:30N 54°41' W 005°24'612.8
2017-Dec-16 18:00N 54°47' W 005°28'612.3
2017-Dec-16 17:30N 54°53' W 005°32'1811.3
2017-Dec-16 15:54N 55°08' W 005°50'4 9.9
2017-Dec-16 15:30N 55°11' W 005°54'4 9.0
2017-Dec-16 15:00N 55°14' W 005°59'4 7.9
2017-Dec-16 14:30N 55°18' W 006°03'4 7.7
2017-Dec-16 14:00N 55°21' W 006°07'4 8.3
2017-Dec-16 13:30N 55°22' W 006°14'4 9.0
2017-Dec-16 13:00N 55°23' W 006°21'5 9.2
2017-Dec-16 12:30N 55°25' W 006°29'5 9.6
2017-Dec-16 12:00N 55°26' W 006°37'5 9.9
2017-Dec-16 11:30N 55°28' W 006°45'510.4
2017-Dec-16 10:59N 55°29' W 006°54'5 9.6
2017-Dec-16 10:30N 55°33' W 007°00'611.1
2017-Dec-16 09:59N 55°38' W 007°03'511.4
2017-Dec-16 09:30N 55°43' W 007°07'711.7
2017-Dec-16 08:57N 55°49' W 007°10'  
2017-Dec-13 18:06N 62°15' E 004°35'1 9.4
2017-Dec-13 18:00N 62°15' E 004°37'5 9.5
2017-Dec-13 17:30N 62°15' E 004°47'5 9.5
2017-Dec-13 17:00N 62°15' E 004°57'4 9.1
2017-Dec-13 16:30N 62°15' E 005°07'4 7.9
2017-Dec-13 16:00N 62°15' E 005°15'5 9.5
2017-Dec-13 15:30N 62°11' E 005°20'510.6
2017-Dec-13 15:00N 62°06' E 005°25'5 7.5
2017-Dec-13 14:24N 62°03' E 005°31'0 0.4
2017-Dec-13 14:00N 62°03' E 005°31'0 0.0
2017-Dec-13 13:30N 62°03' E 005°31'0 0.0
2017-Dec-13 13:00N 62°03' E 005°31'0 0.0
2017-Dec-13 12:24N 62°03' E 005°31'0 0.0
2017-Dec-13 12:00N 62°03' E 005°31'0 0.0
2017-Dec-13 11:21N 62°03' E 005°31'0 0.0
2017-Dec-13 11:00N 62°03' E 005°31'0 0.0
2017-Dec-13 10:30N 62°03' E 005°31'0 0.0
2017-Dec-13 10:00N 62°03' E 005°31'0 0.0
2017-Dec-13 09:30N 62°03' E 005°31'0 0.0
2017-Dec-13 09:00N 62°03' E 005°31'0 0.0
2017-Dec-13 08:30N 62°03' E 005°31'0 0.0
2017-Dec-13 08:00N 62°03' E 005°31'0 0.0
2017-Dec-13 07:24N 62°03' E 005°31'0 0.0
2017-Dec-13 07:00N 62°03' E 005°31'0 0.0
2017-Dec-13 06:30N 62°03' E 005°31'0 0.0
2017-Dec-13 06:00N 62°03' E 005°31'0 0.0
2017-Dec-13 05:30N 62°03' E 005°31'0 0.0
2017-Dec-13 04:57N 62°03' E 005°31'0 0.0
2017-Dec-13 04:30N 62°03' E 005°31'0 0.1
2017-Dec-13 04:00N 62°03' E 005°31'0 0.0
2017-Dec-13 03:30N 62°03' E 005°31'0 0.0
2017-Dec-13 03:00N 62°03' E 005°31'0 0.0
2017-Dec-13 02:30N 62°03' E 005°31'0 0.0
2017-Dec-13 02:00N 62°03' E 005°31'0 0.0
2017-Dec-13 01:18N 62°03' E 005°31'0 0.1
2017-Dec-13 01:00N 62°03' E 005°31'0 0.0
2017-Dec-13 00:30N 62°03' E 005°31'0 0.0
2017-Dec-13 00:00N 62°03' E 005°31'0 0.0
2017-Dec-12 23:30N 62°03' E 005°31'0 0.0
2017-Dec-12 22:54N 62°03' E 005°31'0 0.0
2017-Dec-12 22:30N 62°03' E 005°31'0 0.0
2017-Dec-12 22:00N 62°03' E 005°31'0 0.0
2017-Dec-12 21:30N 62°03' E 005°31'0 0.0
2017-Dec-12 20:57N 62°03' E 005°31'0 0.0
2017-Dec-12 20:30N 62°03' E 005°31'0 0.0
2017-Dec-12 20:00N 62°03' E 005°31'0 0.1
2017-Dec-12 19:30N 62°03' E 005°31'0 0.0
2017-Dec-12 19:00N 62°03' E 005°31'0 0.0
2017-Dec-12 18:30N 62°03' E 005°31'0 0.0
2017-Dec-12 18:00N 62°03' E 005°31'0 0.0
2017-Dec-12 17:30N 62°03' E 005°31'0 0.0
2017-Dec-12 17:00N 62°03' E 005°31'0 0.0
2017-Dec-12 16:27N 62°03' E 005°31'0 0.0
2017-Dec-12 15:57N 62°03' E 005°31'0 0.0
2017-Dec-12 15:30N 62°03' E 005°31'0 0.0
2017-Dec-12 15:00N 62°03' E 005°31'0 0.0
2017-Dec-12 14:30N 62°03' E 005°31'0 0.0
2017-Dec-12 13:57N 62°03' E 005°31'0 0.0
2017-Dec-12 13:30N 62°03' E 005°31'0 0.1
2017-Dec-12 13:00N 62°03' E 005°31'0 0.0
2017-Dec-12 12:27N 62°03' E 005°31'0 0.0
2017-Dec-12 12:00N 62°03' E 005°31'0 0.0
2017-Dec-12 11:24N 62°03' E 005°31'0 0.0
2017-Dec-12 11:00N 62°03' E 005°31'0 0.0
2017-Dec-12 10:30N 62°03' E 005°31'0 0.0
2017-Dec-12 09:57N 62°03' E 005°31'0 0.0
2017-Dec-12 09:30N 62°03' E 005°31'0 0.0
2017-Dec-12 09:00N 62°03' E 005°31'0 0.0
2017-Dec-12 08:30N 62°03' E 005°31'0 0.0
2017-Dec-12 07:54N 62°03' E 005°31'0 0.0
2017-Dec-12 07:30N 62°03' E 005°31'0 0.0
2017-Dec-12 07:00N 62°03' E 005°31'0 0.0
2017-Dec-12 06:30N 62°03' E 005°31'0 0.1
2017-Dec-12 06:00N 62°03' E 005°31'0 0.0
2017-Dec-12 05:30N 62°03' E 005°31'0 0.0
2017-Dec-12 05:00N 62°03' E 005°31'0 0.0
2017-Dec-12 04:30N 62°03' E 005°31'0 0.0
2017-Dec-12 04:00N 62°03' E 005°31'0 0.0
2017-Dec-12 03:30N 62°03' E 005°31'0 0.0
2017-Dec-12 03:00N 62°03' E 005°31'0 0.0
2017-Dec-12 02:27N 62°03' E 005°31'0 0.0
2017-Dec-12 02:00N 62°03' E 005°31'0 0.0
2017-Dec-12 01:30N 62°03' E 005°31'0 0.0
2017-Dec-12 01:00N 62°03' E 005°31'0 0.0
2017-Dec-12 00:30N 62°03' E 005°31'0 0.0
2017-Dec-12 00:00N 62°03' E 005°31'0 0.0
2017-Dec-11 23:27N 62°03' E 005°31'0 0.0
2017-Dec-11 23:00N 62°03' E 005°31'0 0.0
2017-Dec-11 22:30N 62°03' E 005°31'0 0.0
2017-Dec-11 22:00N 62°03' E 005°31'0 0.0
2017-Dec-11 21:30N 62°03' E 005°31'0 0.0
2017-Dec-11 21:00N 62°03' E 005°31'0 0.0
2017-Dec-11 20:30N 62°03' E 005°31'0 0.0
2017-Dec-11 20:00N 62°03' E 005°31'0 0.0
2017-Dec-11 19:30N 62°03' E 005°31'0 0.0
2017-Dec-11 19:00N 62°03' E 005°31'0 0.0
2017-Dec-11 18:30N 62°03' E 005°31'0 0.0
2017-Dec-11 18:00N 62°03' E 005°31'0 0.0
2017-Dec-11 17:27N 62°03' E 005°31'0 0.0
2017-Dec-11 16:57N 62°03' E 005°31'0 0.0
2017-Dec-11 16:30N 62°03' E 005°31'0 0.0
2017-Dec-11 16:00N 62°03' E 005°31'0 0.0
2017-Dec-11 15:30N 62°03' E 005°31'0 0.0
2017-Dec-11 15:00N 62°03' E 005°31'0 0.0
2017-Dec-11 14:30N 62°03' E 005°31'0 0.0
2017-Dec-11 14:00N 62°03' E 005°31'0 0.0
2017-Dec-11 13:30N 62°03' E 005°31'0 0.0
2017-Dec-11 12:59N 62°03' E 005°31'1 1.8
2017-Dec-11 12:30N 62°03' E 005°31'2 3.6
2017-Dec-11 12:00N 62°05' E 005°28'2 4.2
2017-Dec-11 11:30N 62°06' E 005°25'4 8.5
2017-Dec-11 11:00N 62°10' E 005°21'4 9.1
2017-Dec-11 10:30N 62°13' E 005°15'5 9.4
2017-Dec-11 10:00N 62°15' E 005°05'3 6.4
2017-Dec-11 09:30N 62°15' E 004°58'3 6.3
2017-Dec-11 09:00N 62°13' E 004°52'3 6.3
2017-Dec-11 08:30N 62°11' E 004°47'4 7.9
2017-Dec-11 08:00N 62°09' E 004°40'612.6
2017-Dec-11 07:30N 62°05' E 004°29'469 9.6
2017-Dec-09 06:27N 54°30' E 000°49'61 7.2
2017-Dec-08 21:54N 53°33' E 000°14'411.0
2017-Dec-08 21:31N 53°33' E 000°07'5 9.5
2017-Dec-08 21:01N 53°35' W 000°01'612.0
2017-Dec-08 20:30N 53°38' W 000°10'1 2.3
2017-Dec-08 20:00N 53°38' W 000°12'0 0.0
2017-Dec-08 19:15N 53°38' W 000°12'0 0.0
2017-Dec-08 18:45N 53°38' W 000°12'0 0.0
2017-Dec-08 18:27N 53°38' W 000°12'0 0.0
2017-Dec-08 17:57N 53°38' W 000°12'0 0.0
2017-Dec-08 17:27N 53°38' W 000°12'0 0.0
2017-Dec-08 16:54N 53°38' W 000°12'0 0.0
2017-Dec-08 16:30N 53°38' W 000°12'0 0.0
2017-Dec-08 16:00N 53°38' W 000°12'0 0.0
2017-Dec-08 15:30N 53°38' W 000°12'0 0.0
2017-Dec-08 14:57N 53°38' W 000°12'0 0.0
2017-Dec-08 14:30N 53°38' W 000°12'0 0.0
2017-Dec-08 14:00N 53°38' W 000°12'0 0.0
2017-Dec-08 13:27N 53°38' W 000°12'0 0.0
2017-Dec-08 12:57N 53°38' W 000°12'0 0.0
2017-Dec-08 11:45N 53°38' W 000°12'0 0.0
2017-Dec-08 11:27N 53°38' W 000°12'0 0.0
2017-Dec-08 10:57N 53°38' W 000°12'0 0.0
2017-Dec-08 10:27N 53°38' W 000°12'0 0.0
2017-Dec-08 09:54N 53°38' W 000°12'0 0.0
2017-Dec-08 09:27N 53°38' W 000°12'0 0.0
2017-Dec-08 09:00N 53°38' W 000°12'0 0.0
2017-Dec-08 08:30N 53°38' W 000°12'0 0.0
2017-Dec-08 07:57N 53°38' W 000°12'0 0.0
2017-Dec-08 07:30N 53°38' W 000°12'0 0.0
2017-Dec-08 07:00N 53°38' W 000°12'0 0.0
2017-Dec-08 06:30N 53°38' W 000°12'0 0.0
2017-Dec-08 06:00N 53°38' W 000°12'0 0.0
2017-Dec-08 05:30N 53°38' W 000°12'0 0.0
2017-Dec-08 05:00N 53°38' W 000°12'0 0.0
2017-Dec-08 04:30N 53°38' W 000°12'0 0.0
2017-Dec-08 04:00N 53°38' W 000°12'0 0.0
2017-Dec-08 03:30N 53°38' W 000°12'0 0.0
2017-Dec-08 03:00N 53°38' W 000°12'0 0.0
2017-Dec-08 02:30N 53°38' W 000°12'0 0.0
2017-Dec-08 02:00N 53°38' W 000°12'0 0.0
2017-Dec-08 01:24N 53°38' W 000°12'0 0.0
2017-Dec-08 01:00N 53°38' W 000°12'0 0.0
2017-Dec-08 00:30N 53°38' W 000°12'  
Track history (hours):
 
Tides and Currents Weather Stations Pressure Air Temp Water Temp Dewpoint Dewpoint Depression Visibility Wind Speed Wind Dir Waves Ship Positions

Sea Proteus

Last reported at 2017-Dec-17 23:54 UTC. Time now 2017-Dec-18 14:54 UTC.
Position N 49°38' W 007°05'.

Length 229 m; draft 13.3 m.

Type: Cargo ship. MMSI: 538005068.

Date/timePositionNaut miles runAvg speedWind from/ knotsBaromVisibWave heightAir tempDewpointWater temp
2017-Dec-17 23:54N 49°38' W 007°05'4111.1
2017-Dec-17 20:14N 50°16' W 006°45'911.3
2017-Dec-17 19:26N 50°25' W 006°40'711.0
2017-Dec-17 18:47N 50°32' W 006°36'310.8
2017-Dec-17 18:29N 50°35' W 006°35'20910.3
2017-Dec-16 22:15N 53°58' W 005°16'310.4
2017-Dec-16 21:59N 54°01' W 005°16'510.7
2017-Dec-16 21:30N 54°06' W 005°17'510.9
2017-Dec-16 21:00N 54°11' W 005°17'611.2
2017-Dec-16 20:30N 54°17' W 005°18'611.7
2017-Dec-16 20:00N 54°23' W 005°18'612.2
2017-Dec-16 19:30N 54°29' W 005°18'612.5
2017-Dec-16 19:00N 54°35' W 005°20'613.0
2017-Dec-16 18:30N 54°41' W 005°24'612.8
2017-Dec-16 18:00N 54°47' W 005°28'612.3
2017-Dec-16 17:30N 54°53' W 005°32'1811.3
2017-Dec-16 15:54N 55°08' W 005°50'4 9.9
2017-Dec-16 15:30N 55°11' W 005°54'4 9.0
2017-Dec-16 15:00N 55°14' W 005°59'4 7.9
2017-Dec-16 14:30N 55°18' W 006°03'4 7.7
2017-Dec-16 14:00N 55°21' W 006°07'4 8.3
2017-Dec-16 13:30N 55°22' W 006°14'4 9.0
2017-Dec-16 13:00N 55°23' W 006°21'5 9.2
2017-Dec-16 12:30N 55°25' W 006°29'5 9.6
2017-Dec-16 12:00N 55°26' W 006°37'5 9.9
2017-Dec-16 11:30N 55°28' W 006°45'510.4
2017-Dec-16 10:59N 55°29' W 006°54'5 9.6
2017-Dec-16 10:30N 55°33' W 007°00'611.1
2017-Dec-16 09:59N 55°38' W 007°03'511.4
2017-Dec-16 09:30N 55°43' W 007°07'711.7
2017-Dec-16 08:57N 55°49' W 007°10'  
2017-Dec-13 18:06N 62°15' E 004°35'1 9.4
2017-Dec-13 18:00N 62°15' E 004°37'5 9.5
2017-Dec-13 17:30N 62°15' E 004°47'5 9.5
2017-Dec-13 17:00N 62°15' E 004°57'4 9.1
2017-Dec-13 16:30N 62°15' E 005°07'4 7.9
2017-Dec-13 16:00N 62°15' E 005°15'5 9.5
2017-Dec-13 15:30N 62°11' E 005°20'510.6
2017-Dec-13 15:00N 62°06' E 005°25'5 7.5
2017-Dec-13 14:24N 62°03' E 005°31'0 0.4
2017-Dec-13 14:00N 62°03' E 005°31'0 0.0
2017-Dec-13 13:30N 62°03' E 005°31'0 0.0
2017-Dec-13 13:00N 62°03' E 005°31'0 0.0
2017-Dec-13 12:24N 62°03' E 005°31'0 0.0
2017-Dec-13 12:00N 62°03' E 005°31'0 0.0
2017-Dec-13 11:21N 62°03' E 005°31'0 0.0
2017-Dec-13 11:00N 62°03' E 005°31'0 0.0
2017-Dec-13 10:30N 62°03' E 005°31'0 0.0
2017-Dec-13 10:00N 62°03' E 005°31'0 0.0
2017-Dec-13 09:30N 62°03' E 005°31'0 0.0
2017-Dec-13 09:00N 62°03' E 005°31'0 0.0
2017-Dec-13 08:30N 62°03' E 005°31'0 0.0
2017-Dec-13 08:00N 62°03' E 005°31'0 0.0
2017-Dec-13 07:24N 62°03' E 005°31'0 0.0
2017-Dec-13 07:00N 62°03' E 005°31'0 0.0
2017-Dec-13 06:30N 62°03' E 005°31'0 0.0
2017-Dec-13 06:00N 62°03' E 005°31'0 0.0
2017-Dec-13 05:30N 62°03' E 005°31'0 0.0
2017-Dec-13 04:57N 62°03' E 005°31'0 0.0
2017-Dec-13 04:30N 62°03' E 005°31'0 0.1
2017-Dec-13 04:00N 62°03' E 005°31'0 0.0
2017-Dec-13 03:30N 62°03' E 005°31'0 0.0
2017-Dec-13 03:00N 62°03' E 005°31'0 0.0
2017-Dec-13 02:30N 62°03' E 005°31'0 0.0
2017-Dec-13 02:00N 62°03' E 005°31'0 0.0
2017-Dec-13 01:18N 62°03' E 005°31'0 0.1
2017-Dec-13 01:00N 62°03' E 005°31'0 0.0
2017-Dec-13 00:30N 62°03' E 005°31'0 0.0
2017-Dec-13 00:00N 62°03' E 005°31'0 0.0
2017-Dec-12 23:30N 62°03' E 005°31'0 0.0
2017-Dec-12 22:54N 62°03' E 005°31'0 0.0
2017-Dec-12 22:30N 62°03' E 005°31'0 0.0
2017-Dec-12 22:00N 62°03' E 005°31'0 0.0
2017-Dec-12 21:30N 62°03' E 005°31'0 0.0
2017-Dec-12 20:57N 62°03' E 005°31'0 0.0
2017-Dec-12 20:30N 62°03' E 005°31'0 0.0
2017-Dec-12 20:00N 62°03' E 005°31'0 0.1
2017-Dec-12 19:30N 62°03' E 005°31'0 0.0
2017-Dec-12 19:00N 62°03' E 005°31'0 0.0
2017-Dec-12 18:30N 62°03' E 005°31'0 0.0
2017-Dec-12 18:00N 62°03' E 005°31'0 0.0
2017-Dec-12 17:30N 62°03' E 005°31'0 0.0
2017-Dec-12 17:00N 62°03' E 005°31'0 0.0
2017-Dec-12 16:27N 62°03' E 005°31'0 0.0
2017-Dec-12 15:57N 62°03' E 005°31'0 0.0
2017-Dec-12 15:30N 62°03' E 005°31'0 0.0
2017-Dec-12 15:00N 62°03' E 005°31'0 0.0
2017-Dec-12 14:30N 62°03' E 005°31'0 0.0
2017-Dec-12 13:57N 62°03' E 005°31'0 0.0
2017-Dec-12 13:30N 62°03' E 005°31'0 0.1
2017-Dec-12 13:00N 62°03' E 005°31'0 0.0
2017-Dec-12 12:27N 62°03' E 005°31'0 0.0
2017-Dec-12 12:00N 62°03' E 005°31'0 0.0
2017-Dec-12 11:24N 62°03' E 005°31'0 0.0
2017-Dec-12 11:00N 62°03' E 005°31'0 0.0
2017-Dec-12 10:30N 62°03' E 005°31'0 0.0
2017-Dec-12 09:57N 62°03' E 005°31'0 0.0
2017-Dec-12 09:30N 62°03' E 005°31'0 0.0
2017-Dec-12 09:00N 62°03' E 005°31'0 0.0
2017-Dec-12 08:30N 62°03' E 005°31'0 0.0
2017-Dec-12 07:54N 62°03' E 005°31'0 0.0
2017-Dec-12 07:30N 62°03' E 005°31'0 0.0
2017-Dec-12 07:00N 62°03' E 005°31'0 0.0
2017-Dec-12 06:30N 62°03' E 005°31'0 0.1
2017-Dec-12 06:00N 62°03' E 005°31'0 0.0
2017-Dec-12 05:30N 62°03' E 005°31'0 0.0
2017-Dec-12 05:00N 62°03' E 005°31'0 0.0
2017-Dec-12 04:30N 62°03' E 005°31'0 0.0
2017-Dec-12 04:00N 62°03' E 005°31'0 0.0
2017-Dec-12 03:30N 62°03' E 005°31'0 0.0
2017-Dec-12 03:00N 62°03' E 005°31'0 0.0
2017-Dec-12 02:27N 62°03' E 005°31'0 0.0
2017-Dec-12 02:00N 62°03' E 005°31'0 0.0
2017-Dec-12 01:30N 62°03' E 005°31'0 0.0
2017-Dec-12 01:00N 62°03' E 005°31'0 0.0
2017-Dec-12 00:30N 62°03' E 005°31'0 0.0
2017-Dec-12 00:00N 62°03' E 005°31'0 0.0
2017-Dec-11 23:27N 62°03' E 005°31'0 0.0
2017-Dec-11 23:00N 62°03' E 005°31'0 0.0
2017-Dec-11 22:30N 62°03' E 005°31'0 0.0
2017-Dec-11 22:00N 62°03' E 005°31'0 0.0
2017-Dec-11 21:30N 62°03' E 005°31'0 0.0
2017-Dec-11 21:00N 62°03' E 005°31'0 0.0
2017-Dec-11 20:30N 62°03' E 005°31'0 0.0
2017-Dec-11 20:00N 62°03' E 005°31'0 0.0
2017-Dec-11 19:30N 62°03' E 005°31'0 0.0
2017-Dec-11 19:00N 62°03' E 005°31'0 0.0
2017-Dec-11 18:30N 62°03' E 005°31'0 0.0
2017-Dec-11 18:00N 62°03' E 005°31'0 0.0
2017-Dec-11 17:27N 62°03' E 005°31'0 0.0
2017-Dec-11 16:57N 62°03' E 005°31'0 0.0
2017-Dec-11 16:30N 62°03' E 005°31'0 0.0
2017-Dec-11 16:00N 62°03' E 005°31'0 0.0
2017-Dec-11 15:30N 62°03' E 005°31'0 0.0
2017-Dec-11 15:00N 62°03' E 005°31'0 0.0
2017-Dec-11 14:30N 62°03' E 005°31'0 0.0
2017-Dec-11 14:00N 62°03' E 005°31'0 0.0
2017-Dec-11 13:30N 62°03' E 005°31'0 0.0
2017-Dec-11 12:59N 62°03' E 005°31'1 1.8
2017-Dec-11 12:30N 62°03' E 005°31'2 3.6
2017-Dec-11 12:00N 62°05' E 005°28'2 4.2
2017-Dec-11 11:30N 62°06' E 005°25'4 8.5
2017-Dec-11 11:00N 62°10' E 005°21'4 9.1
2017-Dec-11 10:30N 62°13' E 005°15'5 9.4
2017-Dec-11 10:00N 62°15' E 005°05'3 6.4
2017-Dec-11 09:30N 62°15' E 004°58'3 6.3
2017-Dec-11 09:00N 62°13' E 004°52'3 6.3
2017-Dec-11 08:30N 62°11' E 004°47'4 7.9
2017-Dec-11 08:00N 62°09' E 004°40'612.6
2017-Dec-11 07:30N 62°05' E 004°29'469 9.6
2017-Dec-09 06:27N 54°30' E 000°49'61 7.2
2017-Dec-08 21:54N 53°33' E 000°14'411.0
2017-Dec-08 21:31N 53°33' E 000°07'5 9.5
2017-Dec-08 21:01N 53°35' W 000°01'612.0
2017-Dec-08 20:30N 53°38' W 000°10'1 2.3
2017-Dec-08 20:00N 53°38' W 000°12'0 0.0
2017-Dec-08 19:15N 53°38' W 000°12'0 0.0
2017-Dec-08 18:45N 53°38' W 000°12'0 0.0
2017-Dec-08 18:27N 53°38' W 000°12'0 0.0
2017-Dec-08 17:57N 53°38' W 000°12'0 0.0
2017-Dec-08 17:27N 53°38' W 000°12'0 0.0
2017-Dec-08 16:54N 53°38' W 000°12'0 0.0
2017-Dec-08 16:30N 53°38' W 000°12'0 0.0
2017-Dec-08 16:00N 53°38' W 000°12'0 0.0
2017-Dec-08 15:30N 53°38' W 000°12'0 0.0
2017-Dec-08 14:57N 53°38' W 000°12'0 0.0
2017-Dec-08 14:30N 53°38' W 000°12'0 0.0
2017-Dec-08 14:00N 53°38' W 000°12'0 0.0
2017-Dec-08 13:27N 53°38' W 000°12'0 0.0
2017-Dec-08 12:57N 53°38' W 000°12'0 0.0
2017-Dec-08 11:45N 53°38' W 000°12'0 0.0
2017-Dec-08 11:27N 53°38' W 000°12'0 0.0
2017-Dec-08 10:57N 53°38' W 000°12'0 0.0
2017-Dec-08 10:27N 53°38' W 000°12'0 0.0
2017-Dec-08 09:54N 53°38' W 000°12'0 0.0
2017-Dec-08 09:27N 53°38' W 000°12'0 0.0
2017-Dec-08 09:00N 53°38' W 000°12'0 0.0
2017-Dec-08 08:30N 53°38' W 000°12'0 0.0
2017-Dec-08 07:57N 53°38' W 000°12'0 0.0
2017-Dec-08 07:30N 53°38' W 000°12'0 0.0
2017-Dec-08 07:00N 53°38' W 000°12'0 0.0
2017-Dec-08 06:30N 53°38' W 000°12'0 0.0
2017-Dec-08 06:00N 53°38' W 000°12'0 0.0
2017-Dec-08 05:30N 53°38' W 000°12'0 0.0
2017-Dec-08 05:00N 53°38' W 000°12'0 0.0
2017-Dec-08 04:30N 53°38' W 000°12'0 0.0
2017-Dec-08 04:00N 53°38' W 000°12'0 0.0
2017-Dec-08 03:30N 53°38' W 000°12'0 0.0
2017-Dec-08 03:00N 53°38' W 000°12'0 0.0
2017-Dec-08 02:30N 53°38' W 000°12'0 0.0
2017-Dec-08 02:00N 53°38' W 000°12'0 0.0
2017-Dec-08 01:24N 53°38' W 000°12'0 0.0
2017-Dec-08 01:00N 53°38' W 000°12'0 0.0
2017-Dec-08 00:30N 53°38' W 000°12'  

Dump ship's entire track history